Time;durP1;ratioP1;P1;durP2;ratioP2;P2;SDS_P1;SDS_P2;PMS_P1;PMS_P2;Temp;Humidity;BMP_temperature;BMP_pressure;BME280_temperature;BME280_humidity;BME280_pressure;Samples;Min_cycle;Max_cycle;Signal;HPM_P1;HPM_P2
2023/03/03 00:00:59;;;;;;;145.60;21.27;;;;;;;-1.71;100.00;102016.22;7396998;19;20141;-43
2023/03/03 00:03:28;;;;;;;92.45;19.63;;;;;;;-1.73;100.00;102032.88;7392660;19;20214;-41
2023/03/03 00:05:58;;;;;;;132.75;21.40;;;;;;;-1.69;100.00;102029.97;7396771;19;20143;-43
2023/03/03 00:08:28;;;;;;;102.50;20.35;;;;;;;-1.78;100.00;102025.66;7391244;19;20202;-41
2023/03/03 00:10:57;;;;;;;62.42;19.48;;;;;;;-1.69;100.00;102029.97;7397213;19;20146;-41
2023/03/03 00:13:32;;;;;;;80.82;21.45;;;;;;;-1.68;100.00;102019.13;7392448;19;20198;-43
2023/03/03 00:16:15;;;;;;;84.10;19.02;;;;;;;-1.68;100.00;102030.16;7397270;19;20138;-45
2023/03/03 00:18:46;;;;;;;124.18;24.23;;;;;;;-1.66;100.00;102031.22;7392282;19;20214;-43
2023/03/03 00:21:34;;;;;;;68.72;19.55;;;;;;;-1.65;100.00;102030.47;7397387;19;20158;-43
2023/03/03 00:24:17;;;;;;;79.63;18.75;;;;;;;-1.63;100.00;102015.47;7392252;19;20549;-41
2023/03/03 00:26:48;;;;;;;66.32;20.80;;;;;;;-1.72;100.00;102030.53;7396710;19;20142;-42
2023/03/03 00:29:30;;;;;;;101.60;21.08;;;;;;;-1.75;100.00;102027.63;7390978;19;20198;-42
2023/03/03 00:32:14;;;;;;;161.07;25.33;;;;;;;-1.66;100.00;102030.28;7393854;19;20138;-43
2023/03/03 00:34:44;;;;;;;84.22;20.73;;;;;;;-1.66;100.00;102035.34;7395728;19;20139;-41
2023/03/03 00:37:27;;;;;;;75.65;19.77;;;;;;;-1.68;100.00;102034.31;7393254;19;20142;-43
2023/03/03 00:40:02;;;;;;;96.63;20.95;;;;;;;-1.76;100.00;102041.03;7394583;19;20174;-41
2023/03/03 00:42:35;;;;;;;64.75;19.85;;;;;;;-1.73;100.00;102040.47;7391773;19;20568;-42
2023/03/03 00:45:20;;;;;;;52.55;21.20;;;;;;;-1.71;100.00;102033.94;7396797;19;20127;-41
2023/03/03 00:47:50;;;;;;;170.82;21.95;;;;;;;-1.71;100.00;102026.34;7392441;19;20213;-41
2023/03/03 00:50:28;;;;;;;153.82;21.83;;;;;;;-1.71;100.00;102026.34;7395976;19;20151;-42
2023/03/03 00:53:04;;;;;;;84.30;19.88;;;;;;;-1.76;100.00;102025.84;7392196;19;20201;-41
2023/03/03 00:55:35;;;;;;;84.25;20.63;;;;;;;-1.71;100.00;102031.41;7394629;19;20147;-43
2023/03/03 00:58:06;;;;;;;116.72;22.77;;;;;;;-1.72;100.00;102030.53;7391479;19;20193;-42
2023/03/03 01:00:39;;;;;;;93.47;22.52;;;;;;;-1.69;100.00;102030.84;7393904;19;20150;-43
2023/03/03 01:03:10;;;;;;;100.18;20.13;;;;;;;-1.72;100.00;102019.50;7392135;19;20198;-46
2023/03/03 01:05:39;;;;;;;54.50;21.27;;;;;;;-1.74;100.00;102028.56;7394688;19;20146;-43
2023/03/03 01:08:09;;;;;;;73.93;21.98;;;;;;;-1.76;100.00;102025.84;7391586;19;20189;-41
2023/03/03 01:10:41;;;;;;;64.05;19.02;;;;;;;-1.75;100.00;102026.75;7394601;19;20484;-43
2023/03/03 01:13:11;;;;;;;96.70;20.45;;;;;;;-1.81;100.00;102022.81;7392398;19;20199;-43
2023/03/03 01:15:43;;;;;;;81.05;20.25;;;;;;;-1.81;100.00;102022.81;7392771;19;20165;-43
2023/03/03 01:18:13;;;;;;;73.65;22.42;;;;;;;-1.81;100.00;102019.34;7391393;19;20197;-43
2023/03/03 01:20:45;;;;;;;131.60;23.25;;;;;;;-1.71;100.00;102011.16;7395110;19;20138;-44
2023/03/03 01:23:15;;;;;;;110.25;25.00;;;;;;;-1.80;100.00;102011.94;7390708;19;20215;-41
2023/03/03 01:25:44;;;;;;;78.57;19.77;;;;;;;-1.88;100.00;102005.13;7394401;19;20211;-46
2023/03/03 01:28:14;;;;;;;63.67;20.60;;;;;;;-1.89;100.00;102005.88;7390837;19;20193;-42
2023/03/03 01:30:46;;;;;;;103.60;21.98;;;;;;;-1.81;100.00;102005.09;7394012;19;20156;-44
2023/03/03 01:33:15;;;;;;;75.60;20.45;;;;;;;-1.84;100.00;102006.38;7392210;19;20544;-43
2023/03/03 01:35:46;;;;;;;65.05;19.50;;;;;;;-1.83;100.00;102000.59;7394298;19;20143;-43
2023/03/03 01:38:15;;;;;;;76.60;18.63;;;;;;;-1.85;100.00;102007.13;7390591;19;20214;-43
2023/03/03 01:40:45;;;;;;;78.80;18.33;;;;;;;-1.93;100.00;102006.25;7393837;19;20142;-43
2023/03/03 01:43:16;;;;;;;58.90;21.08;;;;;;;-1.91;100.00;102013.28;7391221;19;20548;-42
2023/03/03 01:46:27;;;;;;;209.88;22.70;;;;;;;-1.96;100.00;102008.41;7394193;19;20134;-46
2023/03/03 01:49:02;;;;;;;142.93;21.13;;;;;;;-1.84;100.00;101999.66;7389302;19;20202;-42
2023/03/03 01:51:34;;;;;;;50.40;18.70;;;;;;;-1.87;100.00;102003.50;7393210;19;20143;-44
2023/03/03 01:54:06;;;;;;;65.60;19.98;;;;;;;-1.88;100.00;102009.28;7391026;19;20215;-45
2023/03/03 01:56:35;;;;;;;80.28;20.10;;;;;;;-1.96;100.00;101995.78;7393073;19;20718;-46
2023/03/03 01:59:08;;;;;;;97.53;22.08;;;;;;;-1.97;100.00;102001.56;7389818;19;20196;-45
2023/03/03 02:01:40;;;;;;;99.80;20.95;;;;;;;-1.95;100.00;101995.06;7393259;19;20135;-44
2023/03/03 02:04:10;;;;;;;114.30;21.00;;;;;;;-1.89;100.00;102003.34;7390181;19;20194;-45
2023/03/03 02:06:43;;;;;;;76.80;21.70;;;;;;;-1.97;100.00;102001.56;7392938;19;20154;-45
2023/03/03 02:09:16;;;;;;;134.18;22.80;;;;;;;-1.95;100.00;102007.72;7389660;19;20208;-42
2023/03/03 02:11:47;;;;;;;84.10;19.83;;;;;;;-2.06;100.00;101999.81;7392972;19;20138;-43
2023/03/03 02:14:16;;;;;;;107.78;20.85;;;;;;;-1.97;100.00;102014.22;7390614;19;20190;-43
2023/03/03 02:16:48;;;;;;;139.45;22.33;;;;;;;-1.95;100.00;102010.25;7393070;19;20141;-44
2023/03/03 02:19:24;;;;;;;42.00;18.73;;;;;;;-1.95;100.00;102000.13;7389794;19;20194;-43
2023/03/03 02:21:53;;;;;;;62.08;19.50;;;;;;;-1.96;100.00;102001.75;7393681;19;20165;-46
2023/03/03 02:24:27;;;;;;;53.42;19.63;;;;;;;-1.97;100.00;102001.56;7392631;19;20216;-44
2023/03/03 02:26:59;;;;;;;54.65;19.90;;;;;;;-1.99;100.00;102000.50;7395942;19;20147;-40
2023/03/03 02:29:29;;;;;;;110.82;21.75;;;;;;;-2.00;100.00;102001.22;7396983;19;20166;-44
2023/03/03 02:31:59;;;;;;;62.80;18.25;;;;;;;-2.05;100.00;101994.00;7398474;19;20143;-45
2023/03/03 02:34:28;;;;;;;89.70;19.98;;;;;;;-2.09;100.00;101994.41;7398651;19;20148;-41
2023/03/03 02:36:58;;;;;;;140.73;21.48;;;;;;;-2.14;100.00;101997.13;7397745;19;20145;-46
2023/03/03 02:39:29;;;;;;;64.85;19.08;;;;;;;-2.23;100.00;102008.03;7395554;19;20174;-41
2023/03/03 02:42:05;;;;;;;113.50;20.05;;;;;;;-2.21;100.00;102009.09;7397944;19;20138;-43
2023/03/03 02:44:37;;;;;;;57.30;18.35;;;;;;;-2.24;100.00;102006.22;7397406;19;20170;-44
2023/03/03 02:47:07;;;;;;;144.18;20.90;;;;;;;-2.15;100.00;102008.00;7397891;19;20533;-45
2023/03/03 02:49:38;;;;;;;66.57;18.60;;;;;;;-2.21;100.00;102005.69;7396417;19;20177;-45
2023/03/03 02:52:10;;;;;;;75.57;19.27;;;;;;;-2.19;100.00;102007.63;7397205;19;20162;-44
2023/03/03 02:54:40;;;;;;;44.78;17.05;;;;;;;-2.14;100.00;102015.75;7398448;19;20869;-45
2023/03/03 02:57:12;;;;;;;70.82;19.40;;;;;;;-2.19;100.00;102025.34;7397283;19;20149;-45
2023/03/03 02:59:42;;;;;;;54.42;17.60;;;;;;;-2.22;100.00;102017.41;7397380;19;20171;-44
2023/03/03 03:02:11;;;;;;;54.25;17.25;;;;;;;-2.25;100.00;102019.56;7397320;19;20135;-47
2023/03/03 03:04:40;;;;;;;86.03;18.92;;;;;;;-2.20;100.00;102028.59;7397431;19;20231;-45
2023/03/03 03:07:10;;;;;;;52.97;18.55;;;;;;;-2.17;100.00;102033.09;7396725;19;20194;-43
2023/03/03 03:09:40;;;;;;;59.85;18.45;;;;;;;-2.25;100.00;102033.88;7396273;19;20170;-44
2023/03/03 03:12:12;;;;;;;151.30;20.10;;;;;;;-2.27;100.00;102045.44;7397361;19;20165;-41
2023/03/03 03:14:41;;;;;;;49.50;18.20;;;;;;;-2.28;100.00;102043.63;7398940;19;20145;-44
2023/03/03 03:17:11;;;;;;;47.13;16.55;;;;;;;-2.37;100.00;102049.44;7396527;19;20174;-41
2023/03/03 03:19:41;;;;;;;55.78;19.30;;;;;;;-2.29;100.00;102052.84;7396889;19;20174;-45
2023/03/03 03:22:10;;;;;;;66.47;18.83;;;;;;;-2.34;100.00;102052.31;7396335;19;20138;-42
2023/03/03 03:24:40;;;;;;;45.17;15.93;;;;;;;-2.32;100.00;102048.34;7397558;19;20140;-45
2023/03/03 03:27:12;;;;;;;54.00;18.42;;;;;;;-2.34;100.00;102049.81;7396761;19;20149;-47
2023/03/03 03:29:41;;;;;;;83.22;18.17;;;;;;;-2.42;100.00;102042.06;7396866;19;20163;-48
2023/03/03 03:32:11;;;;;;;71.60;18.95;;;;;;;-2.37;100.00;102044.38;7397669;19;20150;-42
2023/03/03 03:34:41;;;;;;;43.20;17.58;;;;;;;-2.36;100.00;102042.75;7399164;19;20142;-45
2023/03/03 03:37:10;;;;;;;39.25;16.67;;;;;;;-2.33;100.00;102036.44;7395558;19;20135;-45
2023/03/03 03:39:40;;;;;;;53.25;17.92;;;;;;;-2.32;100.00;102043.28;7396168;19;20170;-46
2023/03/03 03:42:13;;;;;;;59.00;20.17;;;;;;;-2.25;100.00;102054.97;7396223;19;20127;-42
2023/03/03 03:44:42;;;;;;;65.75;18.67;;;;;;;-2.22;100.00;102051.91;7396559;19;20149;-49
2023/03/03 03:47:12;;;;;;;40.65;17.45;;;;;;;-2.29;100.00;102046.88;7396650;19;20609;-47
2023/03/03 03:49:41;;;;;;;53.17;19.25;;;;;;;-2.29;100.00;102041.81;7395619;19;20170;-42
2023/03/03 03:52:11;;;;;;;44.55;18.00;;;;;;;-2.31;100.00;102049.22;7395943;19;20145;-41
2023/03/03 03:54:40;;;;;;;53.58;17.27;;;;;;;-2.38;100.00;102037.53;7396599;19;20561;-44
2023/03/03 03:57:13;;;;;;;51.30;17.95;;;;;;;-2.43;100.00;102043.69;7395593;19;20629;-45
2023/03/03 03:59:42;;;;;;;45.95;18.35;;;;;;;-2.33;100.00;102036.44;7395703;19;20168;-44
2023/03/03 04:02:12;;;;;;;44.58;19.05;;;;;;;-2.25;100.00;102039.81;7393640;19;20615;-45
2023/03/03 04:04:41;;;;;;;89.72;20.17;;;;;;;-2.38;100.00;102041.66;7396635;19;20141;-42
2023/03/03 04:07:11;;;;;;;60.45;18.40;;;;;;;-2.41;100.00;102039.69;7394963;19;20135;-41
2023/03/03 04:09:40;;;;;;;71.35;16.73;;;;;;;-2.40;100.00;102026.34;7395805;19;20182;-45
2023/03/03 04:12:10;;;;;;;125.47;22.02;;;;;;;-2.33;100.00;102026.31;7395384;19;20139;-42
2023/03/03 04:14:42;;;;;;;66.30;17.15;;;;;;;-2.37;100.00;102031.75;7396252;19;20639;-47
2023/03/03 04:17:17;;;;;;;50.15;16.38;;;;;;;-2.35;100.00;102030.28;7395011;19;20146;-46
2023/03/03 04:19:47;;;;;;;64.57;18.50;;;;;;;-2.29;100.00;102031.69;7395269;19;20166;-47
2023/03/03 04:22:16;;;;;;;51.35;18.50;;;;;;;-2.33;100.00;102031.38;7393906;19;20688;-44
2023/03/03 04:24:47;;;;;;;47.38;17.25;;;;;;;-2.46;100.00;102039.16;7396402;19;20162;-43
2023/03/03 04:27:17;;;;;;;45.03;17.75;;;;;;;-2.41;100.00;102037.16;7393835;19;20193;-42
2023/03/03 04:29:49;;;;;;;86.30;17.23;;;;;;;-2.37;100.00;102035.91;7395198;19;20178;-43
2023/03/03 04:32:19;;;;;;;61.10;16.08;;;;;;;-2.39;100.00;102045.84;7394690;19;20194;-44
2023/03/03 04:34:48;;;;;;;74.78;17.63;;;;;;;-2.34;100.00;102039.69;7397913;19;20147;-45
2023/03/03 04:37:36;;;;;;;72.35;18.80;;;;;;;-2.33;100.00;102032.97;7393031;19;20200;-41
2023/03/03 04:40:06;;;;;;;49.50;18.73;;;;;;;-2.39;100.00;102020.56;7394618;19;20233;-44
2023/03/03 04:42:36;;;;;;;55.88;17.00;;;;;;;-2.44;100.00;102031.75;7392948;19;20200;-44
2023/03/03 04:45:09;;;;;;;48.05;16.60;;;;;;;-2.42;100.00;102034.47;7396620;19;20233;-42
2023/03/03 04:47:38;;;;;;;59.83;17.23;;;;;;;-2.44;100.00;102031.75;7392364;19;20198;-42
2023/03/03 04:50:10;;;;;;;53.45;19.08;;;;;;;-2.38;100.00;102032.47;7392229;19;20178;-44
2023/03/03 04:52:40;;;;;;;46.40;16.80;;;;;;;-2.44;100.00;102046.94;7391640;19;20194;-48
2023/03/03 04:55:11;;;;;;;150.15;21.02;;;;;;;-2.37;100.00;102048.56;7396485;19;20127;-47
2023/03/03 04:57:40;;;;;;;51.78;18.35;;;;;;;-2.29;100.00;102046.88;7386110;19;20194;-42
2023/03/03 05:00:15;;;;;;;44.55;17.85;;;;;;;-2.31;100.00;102049.22;7395192;19;20197;-43
2023/03/03 05:02:44;;;;;;;49.50;18.33;;;;;;;-2.36;100.00;102051.22;7392871;19;20220;-42
2023/03/03 05:05:13;;;;;;;99.57;17.75;;;;;;;-2.42;100.00;102055.59;7395479;19;20162;-48
2023/03/03 05:07:43;;;;;;;75.22;18.33;;;;;;;-2.40;100.00;102059.22;7391758;19;20218;-48
2023/03/03 05:10:13;;;;;;;51.08;17.27;;;;;;;-2.33;100.00;102056.66;7394346;19;20575;-43
2023/03/03 05:12:43;;;;;;;83.22;20.10;;;;;;;-2.28;100.00;102048.66;7391479;19;20233;-47
2023/03/03 05:15:15;;;;;;;100.55;19.35;;;;;;;-2.27;100.00;102048.84;7395939;19;20135;-46
2023/03/03 05:17:44;;;;;;;61.75;18.88;;;;;;;-2.33;100.00;102049.06;7391502;19;20208;-42
2023/03/03 05:20:14;;;;;;;46.80;17.88;;;;;;;-2.30;100.00;102051.06;7393824;19;20190;-44
2023/03/03 05:22:44;;;;;;;50.08;17.77;;;;;;;-2.22;100.00;102049.38;7392323;19;20213;-44
2023/03/03 05:25:14;;;;;;;43.03;16.67;;;;;;;-2.15;100.00;102046.84;7395914;19;20156;-47
2023/03/03 05:27:43;;;;;;;49.45;18.98;;;;;;;-2.21;100.00;102043.63;7391049;19;20533;-47
2023/03/03 05:30:16;;;;;;;131.27;20.95;;;;;;;-2.26;100.00;102052.31;7393620;19;20179;-46
2023/03/03 05:32:45;;;;;;;53.13;16.42;;;;;;;-2.34;100.00;102043.84;7393297;19;20194;-42
2023/03/03 05:35:15;;;;;;;57.65;17.10;;;;;;;-2.37;100.00;102051.97;7396102;19;20139;-43
2023/03/03 05:37:46;;;;;;;68.07;17.55;;;;;;;-2.41;100.00;102053.97;7392156;19;20568;-44
2023/03/03 05:40:16;;;;;;;86.88;18.77;;;;;;;-2.36;100.00;102061.34;7394129;19;20542;-44
2023/03/03 05:42:46;;;;;;;69.25;19.25;;;;;;;-2.35;100.00;102060.63;7392488;19;20198;-45
2023/03/03 05:45:19;;;;;;;64.68;17.00;;;;;;;-2.34;100.00;102059.91;7394367;19;20609;-44
2023/03/03 05:47:49;;;;;;;126.95;17.55;;;;;;;-2.31;100.00;102055.19;7391046;19;20190;-43
2023/03/03 05:50:19;;;;;;;54.83;17.55;;;;;;;-2.31;100.00;102055.19;7392866;19;20511;-44
2023/03/03 05:52:49;;;;;;;61.40;17.23;;;;;;;-2.08;100.00;102061.06;7391436;19;20274;-42
2023/03/03 05:55:22;;;;;;;74.43;22.02;;;;;;;-2.21;100.00;102057.16;7395091;19;20155;-42
2023/03/03 05:57:51;;;;;;;143.55;53.08;;;;;;;-0.84;100.00;102048.47;7390852;19;20205;-43
2023/03/03 06:00:24;;;;;;;59.17;17.83;;;;;;;-1.60;100.00;102056.28;7392683;19;20730;-41
2023/03/03 06:02:54;;;;;;;99.47;19.25;;;;;;;-1.77;100.00;102051.88;7390417;19;20201;-42
2023/03/03 06:05:23;;;;;;;69.43;22.48;;;;;;;-0.59;100.00;102046.03;7394492;19;20156;-45
2023/03/03 06:07:53;;;;;;;65.68;23.95;;;;;;;-0.98;100.00;102047.88;7390955;19;20273;-43
2023/03/03 06:10:22;;;;;;;99.25;35.30;;;;;;;-0.50;100.00;102039.44;7392759;19;20174;-43
2023/03/03 06:12:53;;;;;;;109.65;18.05;;;;;;;-0.28;100.00;102051.88;7391167;19;20208;-42
2023/03/03 06:15:26;;;;;;;52.22;15.32;;;;;;;-1.32;100.00;102059.38;7394956;19;20162;-41
2023/03/03 06:17:55;;;;;;;27.88;13.10;;;;;;;-1.75;100.00;102077.38;7390718;19;20226;-42
2023/03/03 06:20:24;;;;;;;90.38;29.73;;;;;;;-1.55;100.00;102095.69;7392339;19;20668;-47
2023/03/03 06:22:54;;;;;;;63.75;15.35;;;;;;;-1.63;100.00;102099.88;7390948;19;20201;-44
2023/03/03 06:25:23;;;;;;;33.13;13.00;;;;;;;-1.96;100.00;102113.06;7394416;19;20523;-44
2023/03/03 06:27:53;;;;;;;54.80;14.35;;;;;;;-2.09;100.00;102115.84;7387772;19;20186;-43
2023/03/03 06:30:27;;;;;;;82.55;15.15;;;;;;;-2.23;100.00;102136.09;7391942;19;20206;-45
2023/03/03 06:32:56;;;;;;;108.95;14.70;;;;;;;-2.36;100.00;102142.25;7391013;19;20211;-45
2023/03/03 06:35:26;;;;;;;52.40;18.10;;;;;;;-2.03;100.00;102148.50;7390987;19;20156;-44
2023/03/03 06:37:56;;;;;;;29.92;13.45;;;;;;;-2.20;100.00;102144.03;7388648;19;20225;-41
2023/03/03 06:40:25;;;;;;;64.15;20.23;;;;;;;-2.00;100.00;102158.97;7391953;19;20169;-43
2023/03/03 06:42:54;;;;;;;65.18;13.48;;;;;;;-1.91;100.00;102141.41;7388056;19;20202;-42
2023/03/03 06:45:27;;;;;;;51.17;16.48;;;;;;;-1.96;100.00;102148.47;7391177;19;20581;-42
2023/03/03 06:47:56;;;;;;;55.33;15.07;;;;;;;-2.10;100.00;102138.41;7387567;19;20198;-42
2023/03/03 06:50:26;;;;;;;38.60;13.20;;;;;;;-1.99;100.00;102139.66;7389316;19;20246;-45
2023/03/03 06:53:03;;;;;;;33.45;15.30;;;;;;;-1.96;100.00;102139.97;7386735;19;20201;-43
2023/03/03 06:55:33;;;;;;;42.95;17.55;;;;;;;-1.51;100.00;102145.94;7392386;19;20151;-47
2023/03/03 06:58:03;;;;;;;47.05;16.23;;;;;;;-1.85;100.00;102134.53;7388740;19;20203;-43
2023/03/03 07:00:36;;;;;;;51.75;20.77;;;;;;;-1.94;100.00;102128.44;7391127;19;20135;-44
2023/03/03 07:03:10;;;;;;;48.58;17.50;;;;;;;-1.92;100.00;102132.94;7387967;19;20190;-45
2023/03/03 07:05:39;;;;;;;65.43;15.70;;;;;;;-1.88;100.00;102131.66;7391940;19;20158;-41
2023/03/03 07:08:15;;;;;;;64.88;16.52;;;;;;;-2.02;100.00;102129.19;7387946;19;20678;-45
2023/03/03 07:10:45;;;;;;;44.15;17.20;;;;;;;-1.94;100.00;102138.53;7391056;19;20147;-45
2023/03/03 07:13:25;;;;;;;55.45;22.35;;;;;;;-1.31;100.00;102144.75;7392347;19;20193;-42
2023/03/03 07:15:59;;;;;;;42.05;17.60;;;;;;;-1.13;100.00;102142.47;7399510;19;20157;-42
2023/03/03 07:18:37;;;;;;;57.08;18.42;;;;;;;-1.08;100.00;102141.31;7395447;19;20601;-42
2023/03/03 07:21:16;;;;;;;47.90;14.85;;;;;;;-1.52;100.00;102146.69;7397161;19;20496;-46
2023/03/03 07:23:47;;;;;;;50.67;14.68;;;;;;;-1.71;100.00;102143.69;7396776;19;20186;-41
2023/03/03 07:26:18;;;;;;;43.42;13.25;;;;;;;-1.86;100.00;102142.84;7398098;19;20621;-42
2023/03/03 07:28:54;;;;;;;32.20;12.52;;;;;;;-1.93;100.00;102150.47;7394192;19;20662;-43
2023/03/03 07:31:31;;;;;;;53.03;14.25;;;;;;;-1.84;100.00;102151.50;7397726;19;20168;-47
2023/03/03 07:34:02;;;;;;;66.07;12.93;;;;;;;-1.96;100.00;102158.59;7396177;19;20185;-42
2023/03/03 07:36:33;;;;;;;52.13;12.77;;;;;;;-2.02;100.00;102164.59;7397114;19;20637;-43
2023/03/03 07:39:05;;;;;;;41.10;12.68;;;;;;;-2.06;100.00;102164.22;7394028;19;20234;-46
2023/03/03 07:41:36;;;;;;;37.78;13.18;;;;;;;-1.96;100.00;102165.28;7398023;19;20135;-41
2023/03/03 07:44:07;;;;;;;46.42;12.10;;;;;;;-1.96;100.00;102160.22;7396478;19;20197;-41
2023/03/03 07:46:43;;;;;;;36.03;12.40;;;;;;;-1.84;100.00;102153.16;7397615;19;20131;-43
2023/03/03 07:49:23;;;;;;;32.28;11.18;;;;;;;-1.91;100.00;102154.06;7393073;19;20201;-42
2023/03/03 07:51:56;;;;;;;38.63;10.00;;;;;;;-1.87;100.00;102158.75;7398881;19;20130;-41
2023/03/03 07:54:32;;;;;;;38.67;12.20;;;;;;;-1.75;100.00;102159.25;7398028;19;20190;-42
2023/03/03 07:57:07;;;;;;;53.10;10.82;;;;;;;-1.71;100.00;102150.38;7395094;19;20142;-47
2023/03/03 07:59:39;;;;;;;37.08;11.25;;;;;;;-1.63;100.00;102153.03;7395318;19;20206;-43
2023/03/03 08:02:27;;;;;;;57.15;12.68;;;;;;;-1.68;100.00;102153.25;7395693;19;20147;-42
2023/03/03 08:04:56;;;;;;;37.70;12.32;;;;;;;-1.65;100.00;102149.44;7397876;19;20139;-43
2023/03/03 08:07:26;;;;;;;75.30;15.38;;;;;;;-1.58;100.00;102146.00;7392200;19;20197;-42
2023/03/03 08:09:59;;;;;;;34.30;12.20;;;;;;;-1.54;100.00;102135.47;7396098;19;20181;-42
2023/03/03 08:12:46;;;;;;;35.25;12.23;;;;;;;-1.53;100.00;102127.13;7393281;19;20194;-41
2023/03/03 08:15:23;;;;;;;42.65;13.48;;;;;;;-1.55;100.00;102131.13;7398358;19;20239;-42
2023/03/03 08:17:56;;;;;;;51.55;12.80;;;;;;;-1.44;100.00;102133.97;7391934;19;20196;-42
2023/03/03 08:20:45;;;;;;;113.88;17.02;;;;;;;-1.40;100.00;102125.97;7393202;19;20174;-42
2023/03/03 08:23:17;;;;;;;33.47;11.70;;;;;;;-1.43;100.00;102120.59;7393264;19;20222;-42
2023/03/03 08:25:46;;;;;;;69.50;12.98;;;;;;;-1.47;100.00;102113.38;7396588;19;20151;-46
2023/03/03 08:28:16;;;;;;;40.75;11.30;;;;;;;-1.44;100.00;102118.78;7392586;19;20192;-45
2023/03/03 08:30:46;;;;;;;41.67;12.10;;;;;;;-1.30;100.00;102112.72;7397302;19;20202;-41
2023/03/03 08:33:19;;;;;;;26.15;11.30;;;;;;;-1.32;100.00;102109.13;7393616;19;20197;-45
2023/03/03 08:35:49;;;;;;;29.30;10.27;;;;;;;-1.30;100.00;102097.50;7395034;19;20171;-42
2023/03/03 08:38:21;;;;;;;45.65;9.32;;;;;;;-1.30;100.00;102102.56;7391312;19;20198;-42
2023/03/03 08:40:51;;;;;;;33.42;10.63;;;;;;;-1.24;100.00;102094.03;7394551;19;20150;-42
2023/03/03 08:43:23;;;;;;;33.83;10.80;;;;;;;-1.22;100.00;102079.91;7391384;19;20186;-41
2023/03/03 08:45:54;;;;;;;45.65;10.38;;;;;;;-1.13;100.00;102066.47;7395656;19;20146;-47
2023/03/03 08:48:27;;;;;;;29.75;10.13;;;;;;;-1.16;100.00;102066.13;7391989;19;20190;-45
2023/03/03 08:50:56;;;;;;;33.72;9.63;;;;;;;-1.04;100.00;102074.19;7394792;19;20149;-43
2023/03/03 08:53:27;;;;;;;35.60;10.50;;;;;;;-1.03;100.00;102054.06;7390220;19;20655;-43
2023/03/03 08:55:57;;;;;;;30.73;9.10;;;;;;;-1.04;100.00;102048.84;7395641;19;20174;-45
2023/03/03 08:58:27;;;;;;;19.90;9.15;;;;;;;-1.03;100.00;102046.47;7390293;19;20234;-46
2023/03/03 09:01:06;;;;;;;25.65;9.88;;;;;;;-1.02;100.00;102050.78;7393982;19;20206;-44
2023/03/03 09:03:38;;;;;;;25.40;9.02;;;;;;;-0.99;100.00;102051.13;7392151;19;20185;-47
2023/03/03 09:06:08;;;;;;;49.47;9.23;;;;;;;-0.89;100.00;102047.97;7396055;19;20147;-41
2023/03/03 09:08:37;;;;;;;29.52;8.57;;;;;;;-0.83;100.00;102042.66;7390936;19;20206;-46
2023/03/03 09:11:12;;;;;;;18.88;7.68;;;;;;;-0.84;100.00;102021.50;7395227;19;20135;-44
2023/03/03 09:13:41;;;;;;;27.02;8.07;;;;;;;-0.74;100.00;102019.94;7391125;19;20193;-41
2023/03/03 09:16:15;;;;;;;43.97;14.15;;;;;;;-0.69;100.00;101996.91;7395872;19;20149;-43
2023/03/03 09:18:47;;;;;;;21.25;7.72;;;;;;;-0.56;100.00;101995.69;7389709;19;20207;-46
2023/03/03 09:21:23;;;;;;;30.13;8.45;;;;;;;-0.38;100.00;101975.50;7395342;19;20155;-48
2023/03/03 09:23:57;;;;;;;32.67;10.65;;;;;;;-0.48;100.00;101972.03;7392192;19;20189;-44
2023/03/03 09:26:30;;;;;;;26.58;7.70;;;;;;;-0.47;100.00;101968.75;7394022;19;20150;-47
2023/03/03 09:29:07;;;;;;;25.35;8.05;;;;;;;-0.46;100.00;101977.25;7388203;19;20215;-46
2023/03/03 09:31:41;;;;;;;24.80;8.85;;;;;;;-0.38;100.00;101968.81;7394050;19;20139;-46
2023/03/03 09:34:28;;;;;;;30.58;7.88;;;;;;;-0.41;100.00;101961.78;7391606;19;20210;-46
2023/03/03 09:36:58;;;;;;;21.98;6.60;;;;;;;-0.32;100.00;101953.34;7390704;19;20150;-42
2023/03/03 09:39:31;;;;;;;24.52;7.88;;;;;;;-0.34;100.00;101965.88;7390569;19;20184;-42
2023/03/03 09:42:17;;;;;;;35.25;6.53;;;;;;;-0.21;100.00;101952.81;7390433;19;20177;-44
2023/03/03 09:45:04;;;;;;;20.55;8.85;;;;;;;-0.19;100.00;101956.44;7393987;19;20162;-47
2023/03/03 09:47:42;;;;;;;21.65;8.90;;;;;;;-0.15;100.00;101950.03;7389236;19;20210;-42
2023/03/03 09:50:23;;;;;;;19.35;5.85;;;;;;;-0.12;100.00;101947.81;7393985;19;20166;-46
2023/03/03 09:53:02;;;;;;;15.45;6.75;;;;;;;-0.17;100.00;101951.50;7392189;19;20197;-42
2023/03/03 09:55:42;;;;;;;27.10;8.38;;;;;;;-0.07;100.00;101944.13;7394293;19;20168;-46
2023/03/03 09:58:26;;;;;;;16.92;7.57;;;;;;;0.13;100.00;101932.59;7389517;19;20662;-43
2023/03/03 10:01:01;;;;;;;25.98;9.60;;;;;;;0.19;100.00;101937.38;7394668;19;20135;-42
2023/03/03 10:04:08;;;;;;;19.30;8.43;;;;;;;0.16;100.00;101926.94;7391151;19;20224;-45
2023/03/03 10:06:42;;;;;;;20.45;7.35;;;;;;;0.21;100.00;101925.75;7393594;19;20139;-47
2023/03/03 10:09:42;;;;;;;23.77;10.60;;;;;;;0.30;100.00;101919.06;7390461;19;20193;-41
2023/03/03 10:12:18;;;;;;;30.08;10.68;;;;;;;0.32;100.00;101922.69;7392791;19;20170;-45
2023/03/03 10:14:58;;;;;;;33.83;10.40;;;;;;;0.34;100.00;101925.34;7393913;19;20143;-42
2023/03/03 10:17:35;;;;;;;19.55;8.38;;;;;;;0.51;100.00;101927.09;7389269;19;20198;-46
2023/03/03 10:20:18;;;;;;;22.70;9.15;;;;;;;0.57;100.00;101925.19;7393444;19;20178;-43
2023/03/03 10:22:54;;;;;;;27.50;8.60;;;;;;;0.49;100.00;101923.47;7391150;19;20226;-43
2023/03/03 10:25:31;;;;;;;21.67;8.18;;;;;;;0.58;100.00;101926.97;7395280;19;20430;-42
2023/03/03 10:28:29;;;;;;;22.27;8.60;;;;;;;0.75;100.00;101930.28;7389539;19;20194;-44
2023/03/03 10:31:06;;;;;;;20.65;8.20;;;;;;;0.86;100.00;101929.72;7394257;19;20138;-45
2023/03/03 10:33:48;;;;;;;17.80;8.00;;;;;;;0.99;100.00;101941.09;7390183;19;20261;-42
2023/03/03 10:36:29;;;;;;;16.70;8.70;;;;;;;0.97;100.00;101953.66;7394716;19;20849;-44
2023/03/03 10:39:35;;;;;;;22.20;9.20;;;;;;;1.11;100.00;101965.22;7390278;19;20482;-46
2023/03/03 10:42:19;;;;;;;23.13;9.30;;;;;;;1.07;100.00;101991.06;7386780;19;20392;-42
2023/03/03 10:45:06;;;;;;;17.30;8.30;;;;;;;1.02;100.00;102023.66;7393224;19;20443;-42
2023/03/03 10:47:48;;;;;;;20.80;8.50;;;;;;;1.04;100.00;102054.31;7390868;19;20438;-43
2023/03/03 10:50:21;;;;;;;21.27;8.90;;;;;;;1.08;100.00;102066.63;7399216;19;20431;-43
2023/03/03 10:52:54;;;;;;;19.30;8.47;;;;;;;1.14;100.00;102079.03;7397506;19;20794;-45
2023/03/03 10:55:37;;;;;;;22.60;10.10;;;;;;;1.21;100.00;102087.44;7402590;19;20383;-44
2023/03/03 10:58:21;;;;;;;23.60;11.47;;;;;;;1.19;100.00;102086.38;7397157;19;20439;-42
2023/03/03 11:00:54;;;;;;;23.43;11.10;;;;;;;1.23;100.00;102094.31;7400139;19;20826;-41
2023/03/03 11:03:40;;;;;;;25.43;10.80;;;;;;;1.23;100.00;102100.28;7397712;19;20418;-48
2023/03/03 11:06:13;;;;;;;25.93;12.37;;;;;;;1.28;100.00;102096.56;7401812;19;20912;-44
2023/03/03 11:08:46;;;;;;;23.03;11.87;;;;;;;1.29;100.00;102103.44;7396155;19;20455;-46
2023/03/03 11:11:21;;;;;;;28.60;12.13;;;;;;;1.42;100.00;102091.97;7400755;19;20393;-47
2023/03/03 11:13:56;;;;;;;28.70;14.20;;;;;;;1.29;100.00;102095.81;7396557;19;20438;-44
2023/03/03 11:16:46;;;;;;;33.23;14.37;;;;;;;1.45;100.00;102100.81;7398448;19;20411;-46
2023/03/03 11:19:40;;;;;;;28.90;13.30;;;;;;;1.39;100.00;102102.72;7394891;19;20442;-43
2023/03/03 11:22:20;;;;;;;30.20;13.27;;;;;;;1.42;100.00;102103.06;7398478;19;20430;-47
2023/03/03 11:24:59;;;;;;;28.50;12.00;;;;;;;1.24;100.00;102108.84;7399636;19;20401;-41
2023/03/03 11:27:57;;;;;;;30.53;13.53;;;;;;;1.32;100.00;102105.41;7392155;19;20423;-43
2023/03/03 11:30:36;;;;;;;24.80;12.53;;;;;;;1.38;100.00;102095.84;7395867;19;20458;-44